METAR Data
IDs: Format: Raw Decoded Include TAF

Data at: 0602 UTC 19 Aug 2019

KJBR 190553Z AUTO 00000KT 10SM CLR 23/21 A2997 RMK AO2 SLP144 60031 T02330211 10311 20228 403390222 50003
KJBR 190453Z AUTO 00000KT 10SM CLR 23/21 A2998 RMK AO2 SLP147 T02330211
KJBR 190353Z AUTO 17005KT 10SM FEW032 FEW048 BKN110 23/22 A2999 RMK AO2 SLP151 T02330217
KJBR 190253Z AUTO 25004KT 10SM FEW027 FEW075 BKN090 23/21 A2996 RMK AO2 LTG DSNT W RAE47 TSB0157E37 SLP141 P0027 60031 T02330211 50017
KJBR 190238Z AUTO 19011KT 7SM VCTS -RA SCT029 BKN075 OVC090 23/22 A2996 RMK AO2 LTG DSNT SW AND W TSB0157E37 P0027 T02330217
KJBR 190235Z AUTO 19009G15KT 6SM -TSRA BR BKN029 OVC080 23/22 A2997 RMK AO2 LTG DSNT SW AND W TSB0157 P0027 T02330217
KJBR 190203Z AUTO 12010KT 5SM +TSRA OVC033 24/22 A2995 RMK AO2 LTG DSNT SE AND W AND NW TSB0157 P0006 T02440217
KJBR 190153Z AUTO 14014KT 7SM VCTS +RA BKN033 BKN048 OVC060 25/22 A2994 RMK AO2 LTG DSNT ALQDS RAB46 SLP136 P0004 T02500217
KJBR 190136Z AUTO 09010KT 10SM VCTS SCT030 BKN039 OVC048 26/21 A2995 RMK AO2 LTG DSNT NE-SE T02610211
KJBR 190120Z AUTO 08014KT 10SM BKN036 BKN047 26/22 A2994 RMK AO2 LTG DSNT NE-S T02610217
KJBR 190053Z AUTO 11007KT 10SM VCTS SCT040 27/21 A2991 RMK AO2 LTG DSNT ALQDS SLP124 T02720211
KJBR 182353Z AUTO 10006KT 10SM FEW038 31/24 A2990 RMK AO2 LTG DSNT ALQDS TSE04 SLP121 T03110244 10339 20289 51010
KJBR 182310Z AUTO 32003KT 10SM SCT037 BKN090 29/23 A2988 RMK AO2 LTG DSNT E AND SE TSE04 T02940228
KJBR 182253Z AUTO 03012G18KT 10SM TS BKN039 BKN080 29/22 A2988 RMK AO2 WSHFT 2235 LTG DSNT ALQDS TSB27 SLP115 T02890222
KJBR 182233Z AUTO 30007KT 260V350 10SM TS FEW034 FEW046 BKN080 32/23 A2990 RMK AO2 LTG DSNT N-SE TSB27 T03220233
KJBR 182201Z AUTO 20012KT 10SM VCTS CLR 33/24 A2988 RMK AO2 LTG DSNT N AND NW T03280244
KJBR 182153Z AUTO 21007KT 10SM CLR 33/25 A2989 RMK AO2 LTG DSNT N AND NW SLP118 T03280250
KJBR 182053Z AUTO 20015KT 10SM FEW034 33/24 A2987 RMK AO2 LTG DSNT N AND NW SLP111 T03280244 58019
KJBR 181953Z AUTO 18013KT 10SM FEW035 33/24 A2990 RMK AO2 SLP120 T03330244
KJBR 181853Z AUTO 22013G17KT 10SM SCT034 33/24 A2992 RMK AO2 SLP126 T03330239
KJBR 181753Z AUTO 21009KT 10SM CLR 33/23 A2993 RMK AO2 SLP130 T03330233 10339 20228 58008
KJBR 181653Z AUTO 19008KT 10SM CLR 33/24 A2994 RMK AO2 SLP134 T03280244
KJBR 181553Z AUTO 24008KT 10SM CLR 31/24 A2995 RMK AO2 SLP138 T03110239
KJBR 181453Z AUTO 24005KT 10SM CLR 29/23 A2995 RMK AO2 SLP138 T02940233 53006
KJBR 181353Z AUTO 21005KT 10SM CLR 27/23 A2994 RMK AO2 SLP135 T02720233
KJBR 181253Z AUTO 19005KT 10SM CLR 24/22 A2994 RMK AO2 SLP134 T02440222
KJBR 181153Z AUTO 00000KT 10SM CLR 23/22 A2993 RMK AO2 SLP131 T02330217 10239 20222 53011
KJBR 181053Z AUTO 18004KT 10SM CLR 23/21 A2992 RMK AO2 SLP127 T02280211
KJBR 180953Z AUTO 19005KT 10SM CLR 23/21 A2990 RMK AO2 SLP121 T02280211
KJBR 180853Z AUTO 00000KT 10SM CLR 23/21 A2990 RMK AO2 SLP120 T02330211 55006
KJBR 180753Z AUTO 00000KT 10SM CLR 23/21 A2989 RMK AO2 SLP119 T02280211
KJBR 180653Z AUTO 00000KT 10SM CLR 23/22 A2991 RMK AO2 SLP124 T02330217
KJBR 180553Z AUTO 00000KT 10SM CLR 24/22 A2992 RMK AO2 SLP127 T02390217 10317 20239 403390222 50001
KJBR 180453Z AUTO 00000KT 10SM CLR 24/22 A2992 RMK AO2 SLP128 T02390217
KJBR 180353Z AUTO 09003KT 10SM CLR 24/22 A2992 RMK AO2 SLP127 T02440222
KJBR 180253Z AUTO 00000KT 10SM CLR 25/22 A2991 RMK AO2 SLP125 T02500222 53008
KJBR 180153Z AUTO 17005KT 10SM CLR 27/22 A2990 RMK AO2 SLP120 T02720222
KJBR 180053Z AUTO 17006KT 10SM CLR 28/22 A2988 RMK AO2 SLP116 T02830217
KJBR 172353Z AUTO 18010KT 10SM CLR 32/22 A2989 RMK AO2 SLP117 T03170217 10339 20317 56003
KJBR 172253Z AUTO 17010KT 10SM FEW045 33/22 A2989 RMK AO2 SLP118 T03280222
KJBR 172153Z AUTO 17006KT 10SM FEW048 33/22 A2989 RMK AO2 SLP118 T03330222
KJBR 172053Z AUTO 16005KT 10SM CLR 33/23 A2990 RMK AO2 SLP121 T03330228 56024
KJBR 171953Z AUTO 17008KT 10SM CLR 33/23 A2991 RMK AO2 SLP125 T03330228
KJBR 171853Z AUTO 23007KT 10SM FEW041 FEW048 33/23 A2994 RMK AO2 SLP134 T03280228